Time;durP1;ratioP1;P1;durP2;ratioP2;P2;SDS_P1;SDS_P2;PMS_P1;PMS_P2;Temp;Humidity;BMP_temperature;BMP_pressure;BME280_temperature;BME280_humidity;BME280_pressure;Samples;Min_cycle;Max_cycle;Signal;HPM_P1;HPM_P2
2022/05/30 00:00:52;;;;;;;;;;;;;;;-140.72;100.00;52658.72;4955419;28;20015;-70
2022/05/30 00:03:19;;;;;;;;;;;;;;;-140.72;100.00;52691.19;4951941;29;19969;-71
2022/05/30 00:05:46;;;;;;;;;;;;;;;-140.72;100.00;52648.56;4960414;28;19922;-71
2022/05/30 00:08:11;;;;;;;;;;;;;;;-140.72;100.00;52666.84;4975870;28;19925;-71
2022/05/30 00:10:36;;;;;;;;;;;;;;;-140.72;100.00;52672.91;4979243;28;19918;-72
2022/05/30 00:13:02;;;;;;;;;;;;;;;-140.72;100.00;52662.78;4975735;28;19918;-71
2022/05/30 00:15:29;;;;;;;;;;;;;;;-140.72;100.00;52699.31;4983924;28;19918;-71
2022/05/30 00:17:55;;;;;;;;;;;;;;;-140.72;100.00;52666.84;4973982;28;20227;-71
2022/05/30 00:20:20;;;;;;;;;;;;;;;-140.72;100.00;52693.22;4987128;28;19918;-71
2022/05/30 00:22:47;;;;;;;;;;;;;;;-140.72;100.00;52681.03;4948406;28;19955;-70
2022/05/30 00:25:12;;;;;;;;;;;;;;;-140.72;100.00;52672.91;4973893;28;19918;-71
2022/05/30 00:27:37;;;;;;;;;;;;;;;-140.72;100.00;52725.69;4967027;28;19925;-71
2022/05/30 00:30:03;;;;;;;;;;;;;;;-140.72;100.00;52672.91;4954748;28;20383;-71
2022/05/30 00:32:28;;;;;;;;;;;;;;;-140.72;100.00;52689.16;4970975;28;19926;-71
2022/05/30 00:34:53;;;;;;;;;;;;;;;-140.72;100.00;52711.47;4970615;28;19997;-70
2022/05/30 00:37:19;;;;;;;;;;;;;;;-140.72;100.00;52727.72;4969658;28;19933;-71
2022/05/30 00:39:44;;;;;;;;;;;;;;;-140.72;100.00;52676.97;4949554;28;20005;-71
2022/05/30 00:42:14;;;;;;;;;;;;;;;-140.72;100.00;52642.47;4970221;28;19918;-71
2022/05/30 00:44:40;;;;;;;;;;;;;;;-140.72;100.00;52719.59;4952765;28;20356;-71
2022/05/30 00:47:05;;;;;;;;;;;;;;;-140.72;100.00;52721.63;4974747;28;19918;-71
2022/05/30 00:49:30;;;;;;;;;;;;;;;-140.72;100.00;52687.13;4963179;28;19918;-71
2022/05/30 00:51:56;;;;;;;;;;;;;;;-140.72;100.00;52705.38;4972415;28;20021;-71
2022/05/30 00:54:25;;;;;;;;;;;;;;;-140.72;100.00;52687.13;4944050;29;20020;-71
2022/05/30 00:56:53;;;;;;;;;;;;;;;-140.72;100.00;52717.56;4965570;28;20457;-71
2022/05/30 00:59:18;;;;;;;;;;;;;;;-140.72;100.00;52691.19;4973838;28;20010;-70
2022/05/30 01:01:43;;;;;;;;;;;;;;;-140.72;100.00;52679.00;4976474;28;20334;-70
2022/05/30 01:06:58;;;;;;;;;;;;;;;-140.72;100.00;52729.75;4969575;28;19985;-71
2022/05/30 01:09:28;;;;;;;;;;;;;;;-140.72;100.00;52719.59;4971484;28;19923;-71
2022/05/30 01:11:59;;;;;;;;;;;;;;;-140.72;100.00;52668.84;4949253;29;19918;-71
2022/05/30 01:14:26;;;;;;;;;;;;;;;-140.72;100.00;52687.13;4944785;29;19919;-71
2022/05/30 01:16:51;;;;;;;;;;;;;;;-140.72;100.00;52658.72;4972293;28;20334;-71
2022/05/30 01:19:16;;;;;;;;;;;;;;;-140.72;100.00;52705.38;4977277;28;19922;-71
2022/05/30 01:21:45;;;;;;;;;;;;;;;-140.72;100.00;52709.44;4952428;28;19919;-71
2022/05/30 01:24:14;;;;;;;;;;;;;;;-140.72;100.00;52683.06;4971406;28;19973;-71
2022/05/30 01:26:54;;;;;;;;;;;;;;;-140.72;100.00;52666.84;4952993;28;20376;-71
2022/05/30 01:29:29;;;;;;;;;;;;;;;-140.72;100.00;52748.00;4977442;28;19918;-72
2022/05/30 01:31:55;;;;;;;;;;;;;;;-140.72;100.00;52699.31;4955369;28;19931;-71
2022/05/30 01:34:22;;;;;;;;;;;;;;;-140.72;100.00;52691.19;4972286;28;19953;-71
2022/05/30 01:36:47;;;;;;;;;;;;;;;-140.72;100.00;52711.47;4949783;29;19978;-70
2022/05/30 01:39:12;;;;;;;;;;;;;;;-140.72;100.00;52693.22;4959855;28;19926;-71
2022/05/30 01:41:37;;;;;;;;;;;;;;;-140.72;100.00;52721.63;4965467;28;19918;-71
2022/05/30 01:44:03;;;;;;;;;;;;;;;-140.72;100.00;52707.41;4975937;28;19965;-71
2022/05/30 01:46:28;;;;;;;;;;;;;;;-140.72;100.00;52638.41;4966394;28;19997;-71
2022/05/30 01:48:54;;;;;;;;;;;;;;;-140.72;100.00;52723.66;4969802;28;19918;-71
2022/05/30 01:51:20;;;;;;;;;;;;;;;-140.72;100.00;52685.09;4951870;28;19945;-71
2022/05/30 01:53:46;;;;;;;;;;;;;;;-140.72;100.00;52743.94;4968413;28;19919;-71
2022/05/30 01:56:12;;;;;;;;;;;;;;;-140.72;100.00;52699.31;4957790;28;19925;-71
2022/05/30 01:58:37;;;;;;;;;;;;;;;-140.72;100.00;52683.06;4957965;28;19919;-71
2022/05/30 02:01:03;;;;;;;;;;;;;;;-140.72;100.00;52705.38;4970140;28;19922;-71
2022/05/30 02:03:30;;;;;;;;;;;;;;;-140.72;100.00;52723.66;4969945;28;19925;-71
2022/05/30 02:05:55;;;;;;;;;;;;;;;-140.72;100.00;52683.06;4950394;28;19922;-71
2022/05/30 02:08:21;;;;;;;;;;;;;;;-140.72;100.00;52693.22;4953095;28;19918;-71
2022/05/30 02:10:47;;;;;;;;;;;;;;;-140.72;100.00;52676.97;4952286;28;19919;-71
2022/05/30 02:13:12;;;;;;;;;;;;;;;-140.72;100.00;52672.91;4954978;28;19919;-71
2022/05/30 02:17:00;;;;;;;;;;;;;;;-140.72;100.00;52695.25;4968765;28;19919;-71
2022/05/30 02:18:22;;;;;;;;;;;;;;;-140.72;100.00;52695.25;4963323;28;19919;-71
2022/05/30 02:20:48;;;;;;;;;;;;;;;-140.72;100.00;52703.34;4967950;28;19924;-71
2022/05/30 02:23:13;;;;;;;;;;;;;;;-140.72;100.00;52705.38;4970357;28;19943;-71
2022/05/30 02:25:43;;;;;;;;;;;;;;;-140.72;100.00;52666.84;4948989;28;20021;-70
2022/05/30 02:28:08;;;;;;;;;;;;;;;-140.72;100.00;52691.19;4945351;29;19982;-71
2022/05/30 02:30:40;;;;;;;;;;;;;;;-140.72;100.00;52683.06;4959493;28;19965;-71
2022/05/30 02:47:00;;;;;;;;;;;;;;;-140.72;100.00;52691.19;5244698;23;20345;-69
2022/05/30 02:49:26;;;;;;;;;;;;;;;-140.72;100.00;52666.84;4968508;28;20009;-68
2022/05/30 02:51:51;;;;;;;;;;;;;;;-140.72;100.00;52679.00;4964471;28;20345;-67
2022/05/30 02:54:17;;;;;;;;;;;;;;;-140.72;100.00;52679.00;4975024;28;19918;-68
2022/05/30 02:56:47;;;;;;;;;;;;;;;-140.72;100.00;52697.28;4967279;28;19918;-67
2022/05/30 02:59:12;;;;;;;;;;;;;;;-140.72;100.00;52723.66;4964942;28;19954;-68
2022/05/30 03:01:37;;;;;;;;;;;;;;;-140.72;100.00;52709.44;4957964;28;19918;-67
2022/05/30 03:04:04;;;;;;;;;;;;;;;-140.72;100.00;52715.53;4941085;29;19998;-67
2022/05/30 03:06:30;;;;;;;;;;;;;;;-140.72;100.00;52693.22;4964176;28;19919;-67
2022/05/30 03:08:56;;;;;;;;;;;;;;;-140.72;100.00;52672.91;4959737;28;19981;-68
2022/05/30 03:11:22;;;;;;;;;;;;;;;-140.72;100.00;52676.97;4959446;28;19922;-68
2022/05/30 03:13:47;;;;;;;;;;;;;;;-140.72;100.00;52691.19;4969921;28;20034;-68
2022/05/30 03:16:12;;;;;;;;;;;;;;;-140.72;100.00;52705.38;4956945;28;19919;-68
2022/05/30 03:18:38;;;;;;;;;;;;;;;-140.72;100.00;52711.47;4960598;28;19961;-69
2022/05/30 03:21:05;;;;;;;;;;;;;;;-140.72;100.00;52674.94;4958711;28;20060;-69
2022/05/30 03:23:30;;;;;;;;;;;;;;;-140.72;100.00;52697.28;4975839;28;19918;-67
2022/05/30 03:25:55;;;;;;;;;;;;;;;-140.72;100.00;52703.34;4954756;29;19919;-68
2022/05/30 03:28:21;;;;;;;;;;;;;;;-140.72;100.00;52681.03;4957042;28;19940;-68
2022/05/30 03:30:46;;;;;;;;;;;;;;;-140.72;100.00;52687.13;4962030;28;19918;-68
2022/05/30 03:33:11;;;;;;;;;;;;;;;-140.72;100.00;52752.06;4974790;28;19977;-68
2022/05/30 03:35:36;;;;;;;;;;;;;;;-140.72;100.00;52715.53;4944330;29;20237;-68
2022/05/30 03:38:02;;;;;;;;;;;;;;;-140.72;100.00;52709.44;4967076;28;20362;-68
2022/05/30 03:40:28;;;;;;;;;;;;;;;-140.72;100.00;52717.56;4961129;28;19930;-69
2022/05/30 03:42:53;;;;;;;;;;;;;;;-140.72;100.00;52719.59;4968871;28;19951;-68
2022/05/30 03:45:19;;;;;;;;;;;;;;;-140.72;100.00;52723.66;4940312;28;19925;-68
2022/05/30 03:47:45;;;;;;;;;;;;;;;-140.72;100.00;52701.31;4951755;29;20260;-68
2022/05/30 03:50:12;;;;;;;;;;;;;;;-140.72;100.00;52723.66;4957195;29;20050;-68
2022/05/30 03:52:37;;;;;;;;;;;;;;;-140.72;100.00;52711.47;4957067;28;19918;-68
2022/05/30 03:55:08;;;;;;;;;;;;;;;-140.72;100.00;52733.78;4945008;29;20302;-69
2022/05/30 03:57:33;;;;;;;;;;;;;;;-140.72;100.00;52668.84;4957023;28;19974;-68
2022/05/30 03:59:58;;;;;;;;;;;;;;;-140.72;100.00;52697.28;4956008;28;19919;-67
2022/05/30 04:02:25;;;;;;;;;;;;;;;-140.72;100.00;52741.91;4957391;29;19941;-68
2022/05/30 04:04:50;;;;;;;;;;;;;;;-140.72;100.00;52670.88;4955908;28;19942;-69
2022/05/30 04:07:15;;;;;;;;;;;;;;;-140.72;100.00;52697.28;4939492;29;19926;-69
2022/05/30 04:09:41;;;;;;;;;;;;;;;-140.72;100.00;52719.59;4970337;28;20469;-68
2022/05/30 04:12:06;;;;;;;;;;;;;;;-140.72;100.00;52715.53;4958823;28;19922;-68
2022/05/30 04:14:31;;;;;;;;;;;;;;;-140.72;100.00;52713.50;4960965;28;19923;-69
2022/05/30 04:16:57;;;;;;;;;;;;;;;-140.72;100.00;52715.53;4956687;29;20385;-67
2022/05/30 04:19:22;;;;;;;;;;;;;;;-140.72;100.00;52721.63;4957280;29;20254;-68
2022/05/30 04:21:47;;;;;;;;;;;;;;;-140.72;100.00;52679.00;4956166;28;19929;-68
2022/05/30 04:24:12;;;;;;;;;;;;;;;-140.72;100.00;52695.25;4956802;29;19926;-68
2022/05/30 04:26:39;;;;;;;;;;;;;;;-140.72;100.00;52697.28;4939640;28;20414;-68
2022/05/30 04:29:05;;;;;;;;;;;;;;;-140.72;100.00;52695.25;4939543;29;20348;-68
2022/05/30 04:31:30;;;;;;;;;;;;;;;-140.72;100.00;52727.72;4956345;28;19922;-68
2022/05/30 04:33:55;;;;;;;;;;;;;;;-140.72;100.00;52743.94;4938141;29;19925;-72
2022/05/30 04:36:20;;;;;;;;;;;;;;;-140.72;100.00;52676.97;4943466;29;19958;-71
2022/05/30 04:38:45;;;;;;;;;;;;;;;-140.72;100.00;52666.84;4953202;28;20042;-71
2022/05/30 04:41:11;;;;;;;;;;;;;;;-140.72;100.00;52691.19;4947598;29;19930;-69
2022/05/30 04:43:36;;;;;;;;;;;;;;;-140.72;100.00;52664.81;4976059;28;19918;-69
2022/05/30 04:46:04;;;;;;;;;;;;;;;-140.72;100.00;52674.94;4954834;28;19977;-71
2022/05/30 04:48:29;;;;;;;;;;;;;;;-140.72;100.00;52685.09;4963384;28;20000;-72
2022/05/30 04:50:54;;;;;;;;;;;;;;;-140.72;100.00;52672.91;4964642;28;19919;-70
2022/05/30 04:53:20;;;;;;;;;;;;;;;-140.72;100.00;52691.19;4979623;28;19923;-70
2022/05/30 04:55:45;;;;;;;;;;;;;;;-140.72;100.00;52707.41;4975707;28;20018;-69
2022/05/30 04:58:10;;;;;;;;;;;;;;;-140.72;100.00;52648.56;4967474;28;19936;-69
2022/05/30 05:00:35;;;;;;;;;;;;;;;-140.72;100.00;52640.44;4967756;28;19918;-68
2022/05/30 05:03:00;;;;;;;;;;;;;;;-140.72;100.00;52695.25;4967078;28;19930;-69
2022/05/30 05:05:26;;;;;;;;;;;;;;;-140.72;100.00;52654.66;4968572;28;19918;-68
2022/05/30 05:08:00;;;;;;;;;;;;;;;-140.72;100.00;52664.81;4967011;28;19923;-68
2022/05/30 05:10:31;;;;;;;;;;;;;;;-140.72;100.00;52662.78;4969031;28;19919;-68
2022/05/30 05:12:56;;;;;;;;;;;;;;;-140.72;100.00;52670.88;4970544;28;19922;-69
2022/05/30 05:15:21;;;;;;;;;;;;;;;-140.72;100.00;52636.38;4982088;28;20006;-68
2022/05/30 05:17:47;;;;;;;;;;;;;;;-140.72;100.00;52654.66;4969993;28;19958;-70
2022/05/30 05:20:12;;;;;;;;;;;;;;;-140.72;100.00;52674.94;4968800;28;19919;-69
2022/05/30 05:22:37;;;;;;;;;;;;;;;-140.72;100.00;52634.38;4968794;28;19974;-68
2022/05/30 05:25:02;;;;;;;;;;;;;;;-140.72;100.00;52618.13;4967116;28;19925;-71
2022/05/30 05:27:28;;;;;;;;;;;;;;;-140.72;100.00;52660.75;4968800;28;19918;-68
2022/05/30 05:29:54;;;;;;;;;;;;;;;-140.72;100.00;52662.78;4980559;28;19918;-69
2022/05/30 05:32:19;;;;;;;;;;;;;;;-140.72;100.00;52658.72;4967119;28;19942;-69
2022/05/30 05:34:44;;;;;;;;;;;;;;;-140.72;100.00;52656.69;4975632;28;19933;-71
2022/05/30 05:37:09;;;;;;;;;;;;;;;-140.72;100.00;52656.69;4966832;28;20630;-70
2022/05/30 05:39:35;;;;;;;;;;;;;;;-140.72;100.00;52642.47;4967554;28;19919;-69
2022/05/30 05:42:00;;;;;;;;;;;;;;;-140.72;100.00;52695.25;4966302;28;19973;-69
2022/05/30 05:44:25;;;;;;;;;;;;;;;-140.72;100.00;52662.78;4968140;28;19984;-68
2022/05/30 05:46:50;;;;;;;;;;;;;;;-140.72;100.00;52656.69;4966995;29;19926;-69
2022/05/30 05:49:15;;;;;;;;;;;;;;;-140.72;100.00;52654.66;4968253;28;19931;-69
2022/05/30 05:51:41;;;;;;;;;;;;;;;-140.72;100.00;52630.31;4969669;28;19926;-69
2022/05/30 05:54:06;;;;;;;;;;;;;;;-140.72;100.00;52603.94;4957547;28;19977;-69
2022/05/30 05:56:32;;;;;;;;;;;;;;;-140.72;100.00;52601.91;4968779;28;20045;-69
2022/05/30 05:58:57;;;;;;;;;;;;;;;-140.72;100.00;52589.72;4968201;28;19919;-69
2022/05/30 06:01:24;;;;;;;;;;;;;;;-140.72;100.00;52646.53;4948369;28;19953;-69
2022/05/30 06:03:57;;;;;;;;;;;;;;;-140.72;100.00;52603.94;4963946;28;19934;-69
2022/05/30 06:06:23;;;;;;;;;;;;;;;-140.72;100.00;52597.84;4972303;28;19918;-68
2022/05/30 06:08:48;;;;;;;;;;;;;;;-140.72;100.00;52593.78;4951801;29;19929;-70
2022/05/30 06:11:14;;;;;;;;;;;;;;;-140.72;100.00;52610.00;4968441;28;19930;-74
2022/05/30 06:13:41;;;;;;;;;;;;;;;-140.72;100.00;52654.66;4981117;28;19922;-69
2022/05/30 06:16:14;;;;;;;;;;;;;;;-140.72;100.00;52595.81;4959728;28;19923;-68
2022/05/30 06:18:39;;;;;;;;;;;;;;;-140.72;100.00;52632.34;4962153;28;19923;-68
2022/05/30 06:21:04;;;;;;;;;;;;;;;-140.72;100.00;52593.78;4958054;28;19944;-68
2022/05/30 06:23:29;;;;;;;;;;;;;;;-140.72;100.00;52591.75;4963501;28;19918;-69
2022/05/30 06:25:55;;;;;;;;;;;;;;;-140.72;100.00;52589.72;4944093;29;19962;-67
2022/05/30 06:28:20;;;;;;;;;;;;;;;-140.72;100.00;52577.53;4944283;29;20013;-68
2022/05/30 06:30:45;;;;;;;;;;;;;;;-140.72;100.00;52620.16;4965264;28;19929;-68
2022/05/30 06:33:10;;;;;;;;;;;;;;;-140.72;100.00;52610.00;4969435;28;19926;-68
2022/05/30 06:35:39;;;;;;;;;;;;;;;-140.72;100.00;52610.00;4961694;28;19918;-67
2022/05/30 06:38:04;;;;;;;;;;;;;;;-140.72;100.00;52587.69;4939647;29;20246;-67
2022/05/30 06:40:29;;;;;;;;;;;;;;;-140.72;100.00;52624.22;4966631;28;19949;-68
2022/05/30 06:42:54;;;;;;;;;;;;;;;-140.72;100.00;52569.44;4962684;28;19928;-67
2022/05/30 06:45:19;;;;;;;;;;;;;;;-140.72;100.00;52547.09;4958974;28;19961;-68
2022/05/30 06:47:45;;;;;;;;;;;;;;;-140.72;100.00;52559.28;4963958;28;20378;-67
2022/05/30 06:50:10;;;;;;;;;;;;;;;-140.72;100.00;52601.91;4967838;28;19922;-68
2022/05/30 06:52:35;;;;;;;;;;;;;;;-140.72;100.00;52565.38;4955750;28;19962;-68
2022/05/30 06:55:01;;;;;;;;;;;;;;;-140.72;100.00;52563.34;4966249;28;19930;-68
2022/05/30 07:00:11;;;;;;;;;;;;;;;-140.72;100.00;52589.72;4961402;28;19929;-67
2022/05/30 07:02:36;;;;;;;;;;;;;;;-140.72;100.00;52549.13;4965226;28;19966;-68
2022/05/30 07:05:01;;;;;;;;;;;;;;;-140.72;100.00;52591.75;4964651;28;19926;-69
2022/05/30 07:07:27;;;;;;;;;;;;;;;-140.72;100.00;52589.72;4963779;28;19926;-69
2022/05/30 07:09:52;;;;;;;;;;;;;;;-140.72;100.00;52541.03;4945354;29;20018;-68
2022/05/30 07:12:17;;;;;;;;;;;;;;;-140.72;100.00;52561.31;4965850;28;20029;-67
2022/05/30 07:14:42;;;;;;;;;;;;;;;-140.72;100.00;52581.59;4968530;28;19923;-68
2022/05/30 07:17:10;;;;;;;;;;;;;;;-140.72;100.00;52561.31;4945379;28;19965;-68
2022/05/30 07:19:35;;;;;;;;;;;;;;;-140.72;100.00;52545.06;4969408;28;20251;-68
2022/05/30 07:22:02;;;;;;;;;;;;;;;-140.72;100.00;52551.16;4965911;28;19947;-68
2022/05/30 07:24:27;;;;;;;;;;;;;;;-140.72;100.00;52551.16;4948688;28;19945;-68
2022/05/30 07:26:52;;;;;;;;;;;;;;;-140.72;100.00;52524.78;4963518;28;19923;-68
2022/05/30 07:29:17;;;;;;;;;;;;;;;-140.72;100.00;52516.66;4950535;28;19918;-68
2022/05/30 07:31:43;;;;;;;;;;;;;;;-140.72;100.00;52496.38;4961588;28;20032;-68
2022/05/30 07:34:08;;;;;;;;;;;;;;;-140.72;100.00;52528.84;4964692;28;19919;-69
2022/05/30 07:36:33;;;;;;;;;;;;;;;-140.72;100.00;52492.31;4962484;28;19918;-69
2022/05/30 07:38:58;;;;;;;;;;;;;;;-140.72;100.00;52528.84;4960204;28;19933;-68
2022/05/30 07:41:25;;;;;;;;;;;;;;;-140.72;100.00;52498.41;4945473;28;19962;-68
2022/05/30 07:43:51;;;;;;;;;;;;;;;-140.72;100.00;52549.13;4945227;28;19925;-68
2022/05/30 07:46:17;;;;;;;;;;;;;;;-140.72;100.00;52534.94;4956175;28;19930;-69
2022/05/30 07:48:42;;;;;;;;;;;;;;;-140.72;100.00;52573.50;4959203;28;19944;-68
2022/05/30 07:51:08;;;;;;;;;;;;;;;-140.72;100.00;52581.59;4961643;28;19926;-69
2022/05/30 07:53:34;;;;;;;;;;;;;;;-140.72;100.00;52575.50;4967246;28;19929;-68
2022/05/30 07:56:02;;;;;;;;;;;;;;;-140.72;100.00;52553.19;4963868;28;19927;-69
2022/05/30 07:58:28;;;;;;;;;;;;;;;-140.72;100.00;52575.50;4960080;28;19926;-68
2022/05/30 08:00:53;;;;;;;;;;;;;;;-140.72;100.00;52563.34;4962981;28;19923;-68
2022/05/30 08:03:19;;;;;;;;;;;;;;;-140.72;100.00;52589.72;4964737;28;20262;-69
2022/05/30 08:05:45;;;;;;;;;;;;;;;-140.72;100.00;52571.47;4964943;28;19923;-68
2022/05/30 08:08:11;;;;;;;;;;;;;;;-140.72;100.00;52589.72;4959566;28;19925;-68
2022/05/30 08:10:36;;;;;;;;;;;;;;;-140.72;100.00;52626.25;4966656;28;20317;-69
2022/05/30 08:13:02;;;;;;;;;;;;;;;-140.72;100.00;52561.31;4963053;28;19930;-68
2022/05/30 08:15:27;;;;;;;;;;;;;;;-140.72;100.00;52575.50;4957562;28;19927;-69
2022/05/30 08:17:53;;;;;;;;;;;;;;;-140.72;100.00;52577.53;4961521;28;19929;-69
2022/05/30 08:20:19;;;;;;;;;;;;;;;-140.72;100.00;52565.38;4966376;28;19926;-68
2022/05/30 08:22:45;;;;;;;;;;;;;;;-140.72;100.00;52577.53;4960511;28;19923;-70
2022/05/30 08:25:14;;;;;;;;;;;;;;;-140.72;100.00;52551.16;4959066;28;19937;-67
2022/05/30 08:27:39;;;;;;;;;;;;;;;-140.72;100.00;52577.53;4958256;28;19922;-68
2022/05/30 08:30:05;;;;;;;;;;;;;;;-140.72;100.00;52581.59;4952148;28;19964;-69
2022/05/30 08:32:32;;;;;;;;;;;;;;;-140.72;100.00;52581.59;4967912;28;20322;-69
2022/05/30 08:34:59;;;;;;;;;;;;;;;-140.72;100.00;52589.72;4971251;28;20039;-68
2022/05/30 08:37:30;;;;;;;;;;;;;;;-140.72;100.00;52549.13;4945470;28;19937;-68
2022/05/30 08:42:39;;;;;;;;;;;;;;;-140.72;100.00;52528.84;4965120;28;19930;-68
2022/05/30 08:45:08;;;;;;;;;;;;;;;-140.72;100.00;52504.50;4967064;28;19926;-69
2022/05/30 08:47:45;;;;;;;;;;;;;;;-140.72;100.00;52502.47;4966299;28;20263;-68
2022/05/30 08:50:15;;;;;;;;;;;;;;;-140.72;100.00;52484.19;4963527;28;19926;-68
2022/05/30 08:52:56;;;;;;;;;;;;;;;-140.72;100.00;52480.16;4962714;28;20005;-68
2022/05/30 08:55:43;;;;;;;;;;;;;;;-140.72;100.00;52474.06;4964296;28;19918;-69
2022/05/30 08:58:30;;;;;;;;;;;;;;;-140.72;100.00;52443.63;4970180;28;20034;-68
2022/05/30 09:01:00;;;;;;;;;;;;;;;-140.72;100.00;52445.66;4970186;28;19956;-69
2022/05/30 09:03:33;;;;;;;;;;;;;;;-140.72;100.00;52447.69;4978861;28;19926;-68
2022/05/30 09:06:00;;;;;;;;;;;;;;;-140.72;100.00;52427.38;4977707;28;19919;-68
2022/05/30 09:08:29;;;;;;;;;;;;;;;-140.72;100.00;52441.59;4977297;28;19976;-68
2022/05/30 09:10:56;;;;;;;;;;;;;;;-140.72;100.00;52476.09;4974729;28;19923;-68
2022/05/30 09:13:25;;;;;;;;;;;;;;;-140.72;100.00;52447.69;4976073;28;19960;-68
2022/05/30 09:16:08;;;;;;;;;;;;;;;-140.72;100.00;52480.16;4975362;28;19922;-68
2022/05/30 09:18:39;;;;;;;;;;;;;;;-140.72;100.00;52541.03;4980666;28;19965;-68
2022/05/30 09:21:05;;;;;;;;;;;;;;;-140.72;100.00;52528.84;4955399;29;19922;-68
2022/05/30 09:23:30;;;;;;;;;;;;;;;-140.72;100.00;52486.22;4973982;28;19966;-69
2022/05/30 09:25:56;;;;;;;;;;;;;;;-140.72;100.00;52480.16;4972860;28;19922;-67
2022/05/30 09:28:21;;;;;;;;;;;;;;;-140.72;100.00;52476.09;4969520;28;19927;-67
2022/05/30 09:31:03;;;;;;;;;;;;;;;-140.72;100.00;52455.78;4980142;28;19935;-68
2022/05/30 09:33:33;;;;;;;;;;;;;;;-140.72;100.00;52443.63;4971971;28;19924;-69
2022/05/30 09:36:09;;;;;;;;;;;;;;;-140.72;100.00;52482.16;4971910;28;19986;-68
2022/05/30 09:38:39;;;;;;;;;;;;;;;-140.72;100.00;52496.38;4971820;28;19923;-69
2022/05/30 09:41:06;;;;;;;;;;;;;;;-140.72;100.00;52459.84;4970805;28;19918;-68
2022/05/30 09:43:47;;;;;;;;;;;;;;;-140.72;100.00;52461.88;4967279;29;19927;-68
2022/05/30 09:46:15;;;;;;;;;;;;;;;-140.72;100.00;52415.22;4938783;29;19974;-68
2022/05/30 09:48:58;;;;;;;;;;;;;;;-140.72;100.00;52459.84;4971470;28;19923;-68
2022/05/30 09:51:34;;;;;;;;;;;;;;;-140.72;100.00;52427.38;4943482;29;19918;-68
2022/05/30 09:53:59;;;;;;;;;;;;;;;-140.72;100.00;52457.81;4971352;28;19930;-69
2022/05/30 09:56:27;;;;;;;;;;;;;;;-140.72;100.00;52472.03;4951674;29;19918;-69
2022/05/30 09:59:10;;;;;;;;;;;;;;;-140.72;100.00;52472.03;4968094;28;19931;-69
2022/05/30 10:01:36;;;;;;;;;;;;;;;-140.72;100.00;52459.84;4963229;28;19922;-71
2022/05/30 10:04:12;;;;;;;;;;;;;;;-140.72;100.00;52494.34;4956904;29;19937;-70
2022/05/30 10:06:37;;;;;;;;;;;;;;;-140.72;100.00;52482.16;4966736;28;19986;-69
2022/05/30 10:09:21;;;;;;;;;;;;;;;-140.72;100.00;52524.78;4976984;28;19929;-68
2022/05/30 10:11:52;;;;;;;;;;;;;;;-140.72;100.00;52470.00;4946682;28;19937;-69
2022/05/30 10:14:21;;;;;;;;;;;;;;;-140.72;100.00;52528.84;4963118;28;19933;-70
2022/05/30 10:16:46;;;;;;;;;;;;;;;-140.72;100.00;52457.81;4948082;29;19990;-69
2022/05/30 10:19:21;;;;;;;;;;;;;;;-140.72;100.00;52500.44;4967370;28;19938;-68
2022/05/30 10:30:40;;;;;;;;;;;;;;;-140.72;100.00;52500.44;4954680;28;19929;-70
2022/05/30 10:33:05;;;;;;;;;;;;;;;-140.72;100.00;52502.47;4963310;28;20397;-67
2022/05/30 10:35:30;;;;;;;;;;;;;;;-140.72;100.00;52463.91;4969894;28;19926;-68
2022/05/30 10:38:03;;;;;;;;;;;;;;;-140.72;100.00;52451.72;4968150;28;19926;-67
2022/05/30 10:40:43;;;;;;;;;;;;;;;-140.72;100.00;52488.25;4968966;28;20330;-67
2022/05/30 10:43:11;;;;;;;;;;;;;;;-140.72;100.00;52520.72;4966582;28;19937;-68
2022/05/30 10:45:40;;;;;;;;;;;;;;;-140.72;100.00;52520.72;4963076;28;19933;-68
2022/05/30 10:48:06;;;;;;;;;;;;;;;-140.72;100.00;52543.03;4964682;28;19938;-68
2022/05/30 10:50:43;;;;;;;;;;;;;;;-140.72;100.00;52553.19;4944578;29;19982;-68
2022/05/30 10:53:27;;;;;;;;;;;;;;;-140.72;100.00;52539.00;4963168;28;20022;-67
2022/05/30 10:55:54;;;;;;;;;;;;;;;-140.72;100.00;52543.03;4959846;28;19997;-68
2022/05/30 10:58:22;;;;;;;;;;;;;;;-140.72;100.00;52583.63;4942687;29;19918;-72
2022/05/30 11:00:51;;;;;;;;;;;;;;;-140.72;100.00;52528.84;4952095;28;19922;-68
2022/05/30 11:03:23;;;;;;;;;;;;;;;-140.72;100.00;52557.25;4962247;28;19929;-69
2022/05/30 11:05:51;;;;;;;;;;;;;;;-140.72;100.00;52547.09;4957281;28;19918;-69
2022/05/30 11:08:30;;;;;;;;;;;;;;;-140.72;100.00;52557.25;4969887;28;19918;-68
2022/05/30 11:10:57;;;;;;;;;;;;;;;-140.72;100.00;52549.13;4968029;28;19918;-68
2022/05/30 11:13:35;;;;;;;;;;;;;;;-140.72;100.00;52512.59;4953868;28;19990;-67
2022/05/30 11:16:04;;;;;;;;;;;;;;;-140.72;100.00;52512.59;4958224;29;19922;-68
2022/05/30 11:18:33;;;;;;;;;;;;;;;-140.72;100.00;52508.56;4964671;28;20302;-69
2022/05/30 11:21:03;;;;;;;;;;;;;;;-140.72;100.00;52522.75;4973760;28;19918;-68
2022/05/30 11:23:28;;;;;;;;;;;;;;;-140.72;100.00;52530.88;4969025;28;19994;-68
2022/05/30 11:25:53;;;;;;;;;;;;;;;-140.72;100.00;52492.31;4964663;28;19981;-68
2022/05/30 11:28:27;;;;;;;;;;;;;;;-140.72;100.00;52482.16;4963044;28;19930;-69
2022/05/30 11:30:56;;;;;;;;;;;;;;;-140.72;100.00;52467.97;4965822;28;19962;-68
2022/05/30 11:33:32;;;;;;;;;;;;;;;-140.72;100.00;52419.28;4950982;28;19973;-70
2022/05/30 11:36:03;;;;;;;;;;;;;;;-140.72;100.00;52372.59;4959113;28;20009;-68
2022/05/30 11:38:47;;;;;;;;;;;;;;;-140.72;100.00;52354.34;4948246;28;19946;-68
2022/05/30 11:41:13;;;;;;;;;;;;;;;-140.72;100.00;52342.16;4941381;29;19985;-67
2022/05/30 11:43:38;;;;;;;;;;;;;;;-140.72;100.00;52283.31;4935136;29;20355;-68
2022/05/30 11:46:36;;;;;;;;;;;;;;;-140.72;100.00;52271.16;4957643;28;19929;-67
2022/05/30 11:49:10;;;;;;;;;;;;;;;-140.72;100.00;52283.31;4934771;29;19931;-67
2022/05/30 11:51:43;;;;;;;;;;;;;;;-140.72;100.00;52277.22;4946747;29;19997;-68
2022/05/30 11:54:27;;;;;;;;;;;;;;;-140.72;100.00;52269.13;4940861;29;19934;-67
2022/05/30 11:57:01;;;;;;;;;;;;;;;-140.72;100.00;52151.44;4957667;28;19930;-69
2022/05/30 11:59:43;;;;;;;;;;;;;;;-140.72;100.00;52261.00;4958079;28;19919;-69
2022/05/30 12:02:13;;;;;;;;;;;;;;;-140.72;100.00;52283.31;4958365;28;19918;-70
2022/05/30 12:04:56;;;;;;;;;;;;;;;-140.72;100.00;52336.06;4952166;28;19934;-68
2022/05/30 12:07:48;;;;;;;;;;;;;;;-140.72;100.00;52336.06;4955944;28;19927;-69
2022/05/30 12:10:24;;;;;;;;;;;;;;;-140.72;100.00;52344.19;4958922;28;19957;-68
2022/05/30 12:13:07;;;;;;;;;;;;;;;-140.72;100.00;52392.88;4963224;28;19918;-67
2022/05/30 12:15:48;;;;;;;;;;;;;;;-140.72;100.00;52390.84;4959135;29;20290;-66
2022/05/30 12:24:06;;;;;;;;;;;;;;;-140.72;100.00;52360.44;4956941;28;19954;-67
2022/05/30 12:26:46;;;;;;;;;;;;;;;-140.72;100.00;52382.75;4968489;28;19923;-70
2022/05/30 12:29:29;;;;;;;;;;;;;;;-140.72;100.00;52411.16;4965947;28;19923;-71
2022/05/30 12:32:10;;;;;;;;;;;;;;;-140.72;100.00;52382.75;4958698;28;19919;-71
2022/05/30 12:34:54;;;;;;;;;;;;;;;-140.72;100.00;52358.41;4960403;28;19978;-70
2022/05/30 12:37:38;;;;;;;;;;;;;;;-140.72;100.00;52366.50;4949904;29;20359;-69
2022/05/30 12:40:04;;;;;;;;;;;;;;;-140.72;100.00;52273.19;4947586;29;19930;-69
2022/05/30 12:42:34;;;;;;;;;;;;;;;-140.72;100.00;52240.72;4963106;29;19958;-70
2022/05/30 12:45:13;;;;;;;;;;;;;;;-140.72;100.00;52224.47;4966622;28;19965;-68
2022/05/30 12:47:46;;;;;;;;;;;;;;;-140.72;100.00;52187.97;4948086;29;19931;-68
2022/05/30 12:50:30;;;;;;;;;;;;;;;-140.72;100.00;52159.56;4966122;28;20378;-68
2022/05/30 12:53:00;;;;;;;;;;;;;;;-140.72;100.00;52179.84;4964080;28;19941;-69
2022/05/30 12:55:40;;;;;;;;;;;;;;;-140.72;100.00;52196.06;4963186;28;19961;-70
2022/05/30 12:58:06;;;;;;;;;;;;;;;-140.72;100.00;52173.75;4962508;29;20021;-70
2022/05/30 13:00:42;;;;;;;;;;;;;;;-140.72;100.00;52309.69;4961227;28;19976;-67